Time;durP1;ratioP1;P1;durP2;ratioP2;P2;SDS_P1;SDS_P2;PMS_P1;PMS_P2;Temp;Humidity;BMP_temperature;BMP_pressure;BME280_temperature;BME280_humidity;BME280_pressure;Samples;Min_cycle;Max_cycle;Signal;HPM_P1;HPM_P2
2023/12/02 00:00:21;;;;;;;28.33;21.30;;;2.40;99.90;;;;;;5016418;28;20233;-67
2023/12/02 00:02:46;;;;;;;30.90;22.77;;;2.40;99.90;;;;;;5016436;28;20172;-67
2023/12/02 00:05:12;;;;;;;28.27;21.07;;;2.20;99.90;;;;;;5016615;28;20172;-68
2023/12/02 00:07:37;;;;;;;29.67;21.97;;;2.10;99.90;;;;;;5016304;28;20623;-67
2023/12/02 00:10:03;;;;;;;28.10;20.70;;;2.10;99.90;;;;;;5015916;28;20187;-69
2023/12/02 00:12:29;;;;;;;27.90;21.10;;;2.10;99.90;;;;;;5015994;28;20168;-68
2023/12/02 00:14:54;;;;;;;30.37;22.17;;;2.20;99.90;;;;;;5015950;28;20807;-67
2023/12/02 00:17:20;;;;;;;31.40;21.67;;;2.30;99.90;;;;;;5015953;28;20259;-69
2023/12/02 00:19:46;;;;;;;33.40;22.80;;;2.30;99.90;;;;;;5015300;28;20238;-68
2023/12/02 00:22:11;;;;;;;30.57;21.07;;;2.50;99.90;;;;;;5015736;28;20187;-68
2023/12/02 00:24:37;;;;;;;28.50;20.90;;;2.60;99.90;;;;;;5015547;28;20192;-68
2023/12/02 00:27:03;;;;;;;30.07;22.43;;;2.70;99.90;;;;;;5015647;28;20643;-67
2023/12/02 00:29:29;;;;;;;32.73;22.83;;;2.60;99.90;;;;;;5015497;28;20187;-67
2023/12/02 00:31:54;;;;;;;26.27;20.97;;;2.60;99.90;;;;;;5015845;28;20490;-69
2023/12/02 00:34:20;;;;;;;27.73;19.97;;;2.70;99.90;;;;;;5016543;28;20286;-68
2023/12/02 00:36:49;;;;;;;32.37;22.60;;;2.70;99.90;;;;;;5015526;28;20203;-69
2023/12/02 00:39:14;;;;;;;27.83;21.20;;;2.60;99.90;;;;;;5015466;28;20172;-67
2023/12/02 00:41:40;;;;;;;27.17;20.97;;;2.60;99.90;;;;;;5015851;28;20414;-68
2023/12/02 00:44:06;;;;;;;28.43;19.87;;;2.50;99.90;;;;;;5015711;28;20160;-66
2023/12/02 00:46:32;;;;;;;26.30;21.80;;;2.50;99.90;;;;;;5015298;28;20422;-67
2023/12/02 00:48:57;;;;;;;31.20;23.10;;;2.60;99.90;;;;;;5015498;28;20184;-68
2023/12/02 00:51:23;;;;;;;29.17;21.73;;;2.60;99.90;;;;;;5015222;28;20454;-67
2023/12/02 00:53:49;;;;;;;29.70;21.47;;;2.50;99.90;;;;;;5015123;28;20196;-67
2023/12/02 00:56:14;;;;;;;29.50;21.03;;;2.40;99.90;;;;;;5015132;28;20234;-67
2023/12/02 00:58:40;;;;;;;28.57;20.80;;;2.20;99.90;;;;;;5015092;28;20176;-68
2023/12/02 01:01:06;;;;;;;30.37;21.80;;;2.20;99.90;;;;;;5014964;28;20199;-68
2023/12/02 01:03:31;;;;;;;27.63;20.77;;;2.20;99.90;;;;;;5015574;28;20176;-67
2023/12/02 01:05:57;;;;;;;29.63;21.70;;;2.10;99.90;;;;;;5015379;28;20407;-67
2023/12/02 01:08:22;;;;;;;29.73;22.80;;;2.10;99.90;;;;;;5014937;28;20583;-68
2023/12/02 01:10:48;;;;;;;30.90;22.33;;;2.10;99.90;;;;;;5014860;28;20207;-67
2023/12/02 01:13:13;;;;;;;33.03;23.97;;;2.20;99.90;;;;;;5014999;28;20254;-67
2023/12/02 01:15:39;;;;;;;31.13;21.90;;;2.30;99.90;;;;;;5015065;28;20223;-66
2023/12/02 01:18:04;;;;;;;31.93;23.00;;;2.20;99.90;;;;;;5014855;28;20255;-69
2023/12/02 01:20:30;;;;;;;33.03;24.60;;;2.10;99.90;;;;;;5014595;28;20192;-68
2023/12/02 01:22:56;;;;;;;35.13;24.93;;;2.10;99.90;;;;;;5014610;28;20702;-67
2023/12/02 01:25:21;;;;;;;34.33;24.40;;;2.20;99.90;;;;;;5014615;28;20673;-67
2023/12/02 01:27:47;;;;;;;32.13;22.33;;;2.20;99.90;;;;;;5014810;28;20176;-67
2023/12/02 01:30:13;;;;;;;30.30;23.13;;;2.40;99.90;;;;;;5014244;28;20214;-68
2023/12/02 01:32:38;;;;;;;29.13;22.20;;;2.30;99.90;;;;;;5014942;28;20183;-68
2023/12/02 01:35:04;;;;;;;30.13;21.90;;;2.10;99.90;;;;;;5014846;28;20485;-68
2023/12/02 01:37:30;;;;;;;32.33;23.00;;;1.90;99.90;;;;;;5013906;28;20171;-68
2023/12/02 01:39:55;;;;;;;30.17;21.83;;;2.00;99.90;;;;;;5014423;28;20430;-67
2023/12/02 01:42:21;;;;;;;27.60;20.50;;;1.90;99.90;;;;;;5014252;28;20164;-68
2023/12/02 01:44:46;;;;;;;29.40;21.77;;;1.90;99.90;;;;;;5014247;28;20251;-66
2023/12/02 01:47:12;;;;;;;31.17;21.77;;;2.00;99.90;;;;;;5014778;28;20210;-68
2023/12/02 01:49:39;;;;;;;32.00;22.70;;;2.00;99.90;;;;;;5013977;28;20203;-68
2023/12/02 01:52:05;;;;;;;33.83;24.00;;;2.00;99.90;;;;;;5014369;28;20180;-68
2023/12/02 01:54:31;;;;;;;28.53;20.53;;;2.00;99.90;;;;;;5014293;28;20512;-68
2023/12/02 01:56:57;;;;;;;35.00;24.50;;;2.20;99.90;;;;;;5014304;28;20453;-69
2023/12/02 01:59:22;;;;;;;29.83;22.30;;;2.10;99.90;;;;;;5013648;28;20594;-67
2023/12/02 02:01:48;;;;;;;30.33;22.93;;;2.10;99.90;;;;;;5013400;28;20200;-68
2023/12/02 02:04:14;;;;;;;31.90;22.70;;;2.00;99.90;;;;;;5013962;28;20210;-67
2023/12/02 02:06:39;;;;;;;32.97;23.43;;;1.90;99.90;;;;;;5013914;28;20541;-68
2023/12/02 02:09:05;;;;;;;29.43;21.30;;;1.90;99.90;;;;;;5013712;28;20746;-68
2023/12/02 02:11:31;;;;;;;30.23;22.80;;;1.80;99.90;;;;;;5013374;28;20283;-68
2023/12/02 02:13:56;;;;;;;28.43;21.63;;;1.70;99.90;;;;;;5013671;28;20199;-67
2023/12/02 02:16:22;;;;;;;35.63;22.00;;;1.90;99.90;;;;;;5013723;28;20179;-68
2023/12/02 02:18:47;;;;;;;27.47;21.87;;;1.80;99.90;;;;;;5013598;28;20602;-67
2023/12/02 02:21:19;;;;;;;38.90;24.90;;;1.80;99.90;;;;;;5012880;28;20184;-69
2023/12/02 02:23:45;;;;;;;30.10;22.40;;;1.80;99.90;;;;;;5013602;28;20182;-68
2023/12/02 02:26:10;;;;;;;36.43;24.23;;;2.00;99.90;;;;;;5013510;28;20411;-68
2023/12/02 02:28:36;;;;;;;28.83;22.27;;;2.10;99.90;;;;;;5012184;28;20290;-67
2023/12/02 02:31:01;;;;;;;27.97;20.90;;;2.10;99.90;;;;;;5013272;28;20208;-67
2023/12/02 02:33:27;;;;;;;27.37;20.90;;;1.90;99.90;;;;;;5013395;28;20658;-68
2023/12/02 02:35:52;;;;;;;35.13;23.03;;;2.00;99.90;;;;;;5013331;28;20160;-69
2023/12/02 02:38:18;;;;;;;29.90;21.47;;;2.00;99.90;;;;;;5013349;28;20627;-70
2023/12/02 02:40:44;;;;;;;26.63;20.60;;;2.00;99.90;;;;;;5013302;28;20235;-67
2023/12/02 02:43:11;;;;;;;26.80;21.67;;;1.80;99.90;;;;;;5013589;28;20415;-68
2023/12/02 02:45:36;;;;;;;27.33;22.57;;;1.90;99.90;;;;;;5013564;28;20191;-68
2023/12/02 02:48:02;;;;;;;29.47;22.13;;;2.00;99.90;;;;;;5013462;28;20434;-69
2023/12/02 02:50:28;;;;;;;38.83;24.00;;;2.10;99.90;;;;;;5013586;28;20203;-68
2023/12/02 02:52:53;;;;;;;34.10;23.30;;;1.90;99.90;;;;;;5013153;28;20587;-67
2023/12/02 02:55:19;;;;;;;28.00;20.67;;;2.00;99.90;;;;;;5013171;28;20540;-68
2023/12/02 02:57:45;;;;;;;31.77;22.93;;;1.90;99.90;;;;;;5013180;28;20172;-68
2023/12/02 03:00:11;;;;;;;28.73;21.63;;;1.80;99.90;;;;;;5013245;28;20238;-68
2023/12/02 03:02:37;;;;;;;33.53;23.33;;;1.80;99.90;;;;;;5013355;28;20407;-69
2023/12/02 03:05:04;;;;;;;29.87;22.10;;;1.90;99.90;;;;;;5013034;28;20421;-68
2023/12/02 03:07:30;;;;;;;33.77;24.30;;;1.80;99.90;;;;;;5013059;28;20262;-68
2023/12/02 03:09:56;;;;;;;33.57;23.87;;;1.70;99.90;;;;;;5012907;28;20518;-67
2023/12/02 03:12:25;;;;;;;30.03;23.00;;;1.60;99.90;;;;;;5012991;28;20419;-68
2023/12/02 03:14:52;;;;;;;33.07;23.53;;;1.70;99.90;;;;;;5012918;28;20465;-68
2023/12/02 03:17:18;;;;;;;30.77;21.77;;;1.80;99.90;;;;;;5012987;28;20449;-68
2023/12/02 03:19:44;;;;;;;31.83;22.70;;;1.70;99.90;;;;;;5013118;28;20788;-67
2023/12/02 03:22:09;;;;;;;37.20;23.70;;;1.70;99.90;;;;;;5013131;28;20410;-68
2023/12/02 03:24:35;;;;;;;30.37;22.00;;;1.70;99.90;;;;;;5013343;28;20180;-69
2023/12/02 03:27:02;;;;;;;36.40;23.90;;;1.60;99.90;;;;;;5013352;28;20186;-67
2023/12/02 03:29:28;;;;;;;32.83;22.40;;;1.70;99.90;;;;;;5012660;28;20439;-67
2023/12/02 03:31:53;;;;;;;31.27;21.77;;;1.60;99.90;;;;;;5013152;28;20422;-67
2023/12/02 03:34:19;;;;;;;30.70;21.87;;;1.60;99.90;;;;;;5012751;28;20202;-68
2023/12/02 03:36:45;;;;;;;26.03;20.33;;;1.50;99.90;;;;;;5012855;28;20267;-68
2023/12/02 03:39:12;;;;;;;32.73;24.00;;;1.60;99.90;;;;;;5012761;28;20235;-68
2023/12/02 03:41:39;;;;;;;35.23;25.27;;;1.70;99.90;;;;;;5013052;28;20180;-68
2023/12/02 03:44:05;;;;;;;32.60;24.80;;;1.80;99.90;;;;;;5013252;28;20411;-68
2023/12/02 03:46:30;;;;;;;32.83;24.00;;;1.70;99.90;;;;;;5012957;28;20411;-68
2023/12/02 03:48:57;;;;;;;30.33;22.00;;;1.60;99.90;;;;;;5012669;28;20173;-68
2023/12/02 03:51:23;;;;;;;36.10;23.00;;;1.40;99.90;;;;;;5012914;28;20230;-68
2023/12/02 03:53:48;;;;;;;27.10;19.90;;;1.30;99.90;;;;;;5012623;28;20603;-67
2023/12/02 03:56:14;;;;;;;36.00;25.00;;;1.20;99.90;;;;;;5012580;28;20443;-67
2023/12/02 03:58:40;;;;;;;30.17;21.00;;;1.30;99.90;;;;;;5012841;28;20537;-68
2023/12/02 04:01:06;;;;;;;34.60;22.50;;;1.30;99.90;;;;;;5014778;28;20680;-68
2023/12/02 04:03:33;;;;;;;27.90;20.07;;;1.20;99.90;;;;;;5016470;28;20416;-68
2023/12/02 04:05:58;;;;;;;29.93;20.80;;;1.20;99.90;;;;;;5016370;28;20418;-68
2023/12/02 04:08:24;;;;;;;33.13;22.43;;;1.20;99.90;;;;;;5015331;28;20415;-68
2023/12/02 04:10:49;;;;;;;31.43;22.60;;;1.20;99.90;;;;;;5015430;28;20210;-68
2023/12/02 04:13:15;;;;;;;28.60;21.77;;;1.40;99.90;;;;;;5015826;28;20203;-68
2023/12/02 04:15:41;;;;;;;33.80;23.43;;;1.40;99.90;;;;;;5016173;28;20635;-68
2023/12/02 04:18:06;;;;;;;31.10;21.33;;;1.50;99.90;;;;;;5016812;28;20695;-69
2023/12/02 04:20:32;;;;;;;27.90;21.10;;;1.20;99.90;;;;;;5015860;28;20188;-68
2023/12/02 04:22:57;;;;;;;27.03;19.60;;;1.20;99.90;;;;;;5016214;28;20172;-67
2023/12/02 04:25:23;;;;;;;28.80;21.70;;;1.30;99.90;;;;;;5015946;28;20175;-68
2023/12/02 04:27:49;;;;;;;26.77;19.57;;;1.40;99.90;;;;;;5016217;28;20172;-68
2023/12/02 04:30:14;;;;;;;27.53;19.70;;;1.40;99.90;;;;;;5016052;28;20211;-68
2023/12/02 04:32:40;;;;;;;27.73;19.33;;;1.30;99.90;;;;;;5015973;28;20250;-68
2023/12/02 04:35:06;;;;;;;21.30;16.57;;;1.40;99.90;;;;;;5015682;28;20267;-68
2023/12/02 04:37:32;;;;;;;25.30;18.47;;;1.20;99.90;;;;;;5015813;28;20176;-68
2023/12/02 04:39:58;;;;;;;24.33;17.93;;;1.10;99.90;;;;;;5015364;28;20200;-67
2023/12/02 04:42:23;;;;;;;21.53;16.87;;;1.10;99.90;;;;;;5015734;28;20418;-68
2023/12/02 04:44:49;;;;;;;26.00;19.30;;;1.00;99.90;;;;;;5015346;28;20254;-68
2023/12/02 04:47:14;;;;;;;23.83;18.20;;;1.00;99.90;;;;;;5015642;28;20199;-68
2023/12/02 04:49:40;;;;;;;22.27;17.37;;;1.10;99.90;;;;;;5015414;28;20223;-68
2023/12/02 04:52:06;;;;;;;21.10;16.20;;;1.00;99.90;;;;;;5015261;28;20200;-68
2023/12/02 04:54:33;;;;;;;21.20;16.20;;;1.20;99.90;;;;;;5015460;28;20207;-68
2023/12/02 04:57:00;;;;;;;22.63;18.27;;;1.20;99.90;;;;;;5015462;28;20555;-68
2023/12/02 04:59:25;;;;;;;28.33;19.73;;;1.30;99.90;;;;;;5015163;28;20411;-68
2023/12/02 05:01:51;;;;;;;22.57;17.63;;;1.50;99.90;;;;;;5015276;28;20411;-69
2023/12/02 05:04:16;;;;;;;20.40;15.77;;;1.50;99.90;;;;;;5015019;28;20639;-68
2023/12/02 05:06:42;;;;;;;27.90;16.93;;;1.30;99.90;;;;;;5015215;28;20263;-67
2023/12/02 05:09:08;;;;;;;20.07;15.40;;;1.10;99.90;;;;;;5014810;28;20659;-69
2023/12/02 05:11:34;;;;;;;21.93;17.00;;;1.10;99.90;;;;;;5013905;28;20188;-68
2023/12/02 05:13:59;;;;;;;24.20;17.20;;;1.10;99.90;;;;;;5014579;28;20207;-68
2023/12/02 05:16:25;;;;;;;22.70;18.30;;;1.10;99.90;;;;;;5015028;28;20502;-68
2023/12/02 05:18:51;;;;;;;29.50;20.70;;;1.20;99.90;;;;;;5015490;28;20172;-68
2023/12/02 05:21:18;;;;;;;21.13;16.40;;;1.20;99.90;;;;;;5013499;28;20211;-68
2023/12/02 05:23:44;;;;;;;22.23;17.33;;;1.10;99.90;;;;;;5014949;28;20186;-68
2023/12/02 05:26:10;;;;;;;23.53;17.77;;;1.10;99.90;;;;;;5014968;28;20415;-68
2023/12/02 05:28:37;;;;;;;21.17;17.20;;;1.40;99.90;;;;;;5014649;28;20172;-68
2023/12/02 05:31:03;;;;;;;26.30;19.43;;;1.30;99.90;;;;;;5014641;28;20690;-67
2023/12/02 05:33:28;;;;;;;20.07;17.43;;;1.30;99.90;;;;;;5014823;28;20458;-68
2023/12/02 05:35:54;;;;;;;22.63;17.77;;;1.30;99.90;;;;;;5014723;28;20587;-67
2023/12/02 05:38:20;;;;;;;24.13;17.80;;;1.10;99.90;;;;;;5014627;28;20592;-68
2023/12/02 05:40:45;;;;;;;19.83;17.50;;;1.10;99.90;;;;;;5014326;28;20478;-69
2023/12/02 05:43:11;;;;;;;21.27;17.20;;;1.10;99.90;;;;;;5014867;28;20180;-68
2023/12/02 05:45:36;;;;;;;19.57;15.87;;;1.10;99.90;;;;;;5014350;28;20176;-68
2023/12/02 05:48:02;;;;;;;23.43;18.53;;;1.10;99.90;;;;;;5014679;28;20600;-69
2023/12/02 05:50:28;;;;;;;22.80;17.53;;;1.10;99.90;;;;;;5014345;28;20222;-68
2023/12/02 05:52:53;;;;;;;21.47;15.57;;;1.20;99.90;;;;;;5017218;28;20229;-67
2023/12/02 05:55:20;;;;;;;21.40;16.67;;;0.90;99.90;;;;;;5014405;28;20615;-68
2023/12/02 05:57:46;;;;;;;17.90;15.00;;;0.90;99.90;;;;;;5014086;28;20169;-68
2023/12/02 06:00:12;;;;;;;31.47;20.70;;;0.90;99.90;;;;;;5013878;28;20454;-68
2023/12/02 06:02:37;;;;;;;19.00;14.93;;;1.10;99.90;;;;;;5012705;28;20199;-68
2023/12/02 06:05:03;;;;;;;17.77;14.53;;;0.90;99.90;;;;;;5013511;28;20463;-67
2023/12/02 06:07:29;;;;;;;18.70;14.33;;;1.00;99.90;;;;;;5013754;28;20172;-68
2023/12/02 06:09:54;;;;;;;18.80;15.97;;;0.90;99.90;;;;;;5013695;28;20435;-68
2023/12/02 06:12:20;;;;;;;25.07;16.87;;;0.70;99.90;;;;;;5014373;28;20180;-68
2023/12/02 06:14:46;;;;;;;18.33;14.80;;;0.80;99.90;;;;;;5013463;28;20547;-68
2023/12/02 06:17:11;;;;;;;23.87;18.03;;;0.70;99.90;;;;;;5013725;28;20219;-68
2023/12/02 06:19:37;;;;;;;23.07;17.47;;;0.90;99.90;;;;;;5013595;28;20199;-68
2023/12/02 06:22:03;;;;;;;20.97;16.47;;;0.90;99.90;;;;;;5013726;28;20246;-68
2023/12/02 06:24:28;;;;;;;25.47;17.37;;;1.10;99.90;;;;;;5013657;28;20631;-68
2023/12/02 06:26:54;;;;;;;22.30;18.03;;;1.20;99.90;;;;;;5014130;28;20433;-67
2023/12/02 06:29:19;;;;;;;22.20;16.40;;;1.20;99.90;;;;;;5013460;28;20271;-69
2023/12/02 06:31:49;;;;;;;25.40;18.30;;;1.10;99.90;;;;;;5013889;28;20156;-69
2023/12/02 06:34:15;;;;;;;22.53;17.23;;;1.00;99.90;;;;;;5013781;28;20650;-69
2023/12/02 06:36:41;;;;;;;22.73;17.37;;;1.00;99.90;;;;;;5013449;28;20459;-68
2023/12/02 06:39:07;;;;;;;22.87;18.33;;;1.00;99.90;;;;;;5013537;28;20411;-68
2023/12/02 06:41:33;;;;;;;24.03;17.23;;;1.00;99.90;;;;;;5013559;28;20196;-69
2023/12/02 06:43:58;;;;;;;25.60;17.87;;;0.80;99.90;;;;;;5013473;28;20531;-68
2023/12/02 06:46:24;;;;;;;21.43;17.40;;;0.80;99.90;;;;;;5013273;28;20414;-68
2023/12/02 06:48:50;;;;;;;23.43;17.40;;;0.80;99.90;;;;;;5013461;28;20179;-68
2023/12/02 06:51:16;;;;;;;25.47;19.97;;;0.90;99.90;;;;;;5013290;28;20626;-68
2023/12/02 06:53:41;;;;;;;19.13;16.23;;;1.00;99.90;;;;;;5013233;28;20451;-68
2023/12/02 06:56:23;;;;;;;21.30;16.20;;;0.90;99.90;;;;;;5013507;28;20406;-68
2023/12/02 06:58:49;;;;;;;23.50;17.47;;;0.90;99.90;;;;;;5012466;28;20218;-71
2023/12/02 07:01:28;;;;;;;23.50;17.43;;;0.80;99.90;;;;;;5003613;28;20438;-71
2023/12/02 07:03:55;;;;;;;21.90;16.90;;;0.80;99.90;;;;;;5003764;28;20496;-68
2023/12/02 07:06:20;;;;;;;25.00;17.97;;;0.80;99.90;;;;;;5003694;28;20807;-69
2023/12/02 07:08:47;;;;;;;25.00;17.67;;;0.80;99.90;;;;;;5004116;28;20416;-70
2023/12/02 07:11:13;;;;;;;21.60;17.00;;;0.80;99.90;;;;;;5003691;28;20445;-69
2023/12/02 07:13:39;;;;;;;24.40;18.37;;;0.80;99.90;;;;;;5004981;28;20470;-70
2023/12/02 07:16:05;;;;;;;24.00;17.33;;;0.80;99.90;;;;;;5005047;28;20921;-70
2023/12/02 07:18:30;;;;;;;22.57;16.20;;;0.70;99.90;;;;;;5005476;28;20187;-70
2023/12/02 07:20:56;;;;;;;21.63;14.87;;;0.60;99.90;;;;;;5004420;28;20214;-66
2023/12/02 07:23:21;;;;;;;21.10;15.53;;;0.50;99.90;;;;;;5003797;28;20275;-69
2023/12/02 07:25:47;;;;;;;20.17;16.53;;;0.40;99.90;;;;;;5003756;28;20246;-68
2023/12/02 07:28:12;;;;;;;25.50;17.57;;;0.30;99.90;;;;;;5003820;28;20662;-68
2023/12/02 07:30:38;;;;;;;22.70;16.70;;;0.40;99.90;;;;;;5012745;28;20749;-68
2023/12/02 07:33:03;;;;;;;18.33;14.73;;;0.40;99.90;;;;;;5013056;28;20590;-67
2023/12/02 07:35:29;;;;;;;29.63;17.97;;;0.40;99.90;;;;;;5014653;28;20590;-68
2023/12/02 07:37:54;;;;;;;25.47;16.77;;;0.30;99.90;;;;;;5014751;28;20186;-68
2023/12/02 07:40:20;;;;;;;22.43;16.93;;;0.40;99.90;;;;;;5007104;28;20569;-70
2023/12/02 07:42:45;;;;;;;24.40;16.60;;;0.50;99.90;;;;;;5007225;28;20677;-68
2023/12/02 07:45:11;;;;;;;21.33;15.67;;;0.50;99.90;;;;;;5007315;28;20681;-69
2023/12/02 07:47:36;;;;;;;22.20;17.03;;;0.60;99.90;;;;;;5007216;28;20191;-68
2023/12/02 07:50:02;;;;;;;20.20;16.80;;;0.50;99.90;;;;;;5007019;28;20229;-69
2023/12/02 07:52:28;;;;;;;23.33;17.83;;;0.50;99.90;;;;;;5009857;28;20172;-68
2023/12/02 07:54:53;;;;;;;25.40;18.17;;;0.50;99.90;;;;;;5006875;28;20330;-68
2023/12/02 07:57:19;;;;;;;25.00;18.07;;;0.50;99.90;;;;;;5006755;28;20180;-69
2023/12/02 07:59:44;;;;;;;22.63;17.07;;;0.70;99.90;;;;;;5007114;28;20205;-69
2023/12/02 08:02:10;;;;;;;21.73;15.50;;;0.70;99.90;;;;;;5006914;28;20180;-70
2023/12/02 08:04:35;;;;;;;19.80;15.13;;;0.70;99.90;;;;;;5008015;28;20562;-68
2023/12/02 08:07:01;;;;;;;19.50;14.80;;;0.50;99.90;;;;;;5007529;28;20555;-69
2023/12/02 08:09:26;;;;;;;19.80;14.80;;;0.40;99.90;;;;;;5006975;28;20184;-70
2023/12/02 08:11:52;;;;;;;18.47;14.03;;;0.50;99.90;;;;;;5006421;28;20176;-69
2023/12/02 08:14:17;;;;;;;19.93;15.20;;;0.50;99.90;;;;;;5006874;28;20196;-68
2023/12/02 08:16:43;;;;;;;21.10;15.47;;;0.30;99.90;;;;;;5006628;28;20643;-68
2023/12/02 08:19:09;;;;;;;20.87;15.37;;;0.30;99.90;;;;;;5010898;28;20254;-67
2023/12/02 08:21:34;;;;;;;25.73;16.37;;;0.30;99.90;;;;;;5016922;28;20427;-67
2023/12/02 08:24:00;;;;;;;26.00;18.20;;;0.40;99.90;;;;;;5015589;28;20172;-67
2023/12/02 08:26:26;;;;;;;27.63;17.80;;;0.50;99.90;;;;;;5015797;28;20582;-68
2023/12/02 08:28:51;;;;;;;21.10;17.23;;;0.60;99.90;;;;;;5015631;28;20179;-67
2023/12/02 08:31:17;;;;;;;25.17;16.33;;;0.60;99.90;;;;;;5015939;28;20192;-68
2023/12/02 08:33:43;;;;;;;24.07;18.73;;;0.50;99.90;;;;;;5015497;28;20218;-68
2023/12/02 08:36:09;;;;;;;27.73;18.10;;;0.70;99.90;;;;;;5015417;28;20179;-67
2023/12/02 08:38:35;;;;;;;24.30;18.57;;;0.80;99.90;;;;;;5015368;28;20176;-68
2023/12/02 08:41:00;;;;;;;24.53;17.47;;;0.70;99.90;;;;;;5015345;28;20436;-67
2023/12/02 08:43:26;;;;;;;19.73;15.60;;;0.60;99.90;;;;;;5015486;28;20176;-67
2023/12/02 08:45:51;;;;;;;21.57;15.13;;;0.60;99.90;;;;;;5015230;28;20184;-67
2023/12/02 08:48:17;;;;;;;26.00;17.67;;;0.50;99.90;;;;;;5015826;28;20180;-67
2023/12/02 08:50:43;;;;;;;24.20;17.83;;;0.60;99.90;;;;;;5015413;28;20548;-67
2023/12/02 08:53:09;;;;;;;25.07;18.50;;;0.70;99.90;;;;;;5015479;28;20173;-68
2023/12/02 08:55:35;;;;;;;22.60;17.93;;;0.70;99.90;;;;;;5015228;28;20410;-67
2023/12/02 08:58:00;;;;;;;24.27;17.80;;;0.60;99.90;;;;;;5015343;28;20813;-68
2023/12/02 09:00:26;;;;;;;23.70;17.87;;;0.60;99.90;;;;;;5015138;28;20198;-67
2023/12/02 09:02:51;;;;;;;26.73;20.10;;;0.60;99.90;;;;;;5015153;28;20176;-68
2023/12/02 09:05:17;;;;;;;27.87;19.50;;;0.80;99.90;;;;;;5014951;28;20174;-67
2023/12/02 09:07:42;;;;;;;23.30;18.27;;;0.70;99.90;;;;;;5014964;28;20171;-67
2023/12/02 09:10:09;;;;;;;24.70;19.57;;;0.80;99.90;;;;;;5014775;28;20198;-67
2023/12/02 09:12:35;;;;;;;23.23;18.30;;;0.90;99.90;;;;;;5015133;28;20171;-68
2023/12/02 09:15:26;;;;;;;30.43;20.20;;;1.00;99.90;;;;;;5014899;28;20810;-68
2023/12/02 09:18:00;;;;;;;25.00;19.40;;;0.70;99.90;;;;;;5015203;28;20261;-67
2023/12/02 09:20:53;;;;;;;26.53;19.30;;;0.60;99.90;;;;;;5014532;28;20426;-68
2023/12/02 09:23:20;;;;;;;27.70;20.00;;;0.50;99.90;;;;;;5014896;28;20383;-68
2023/12/02 09:25:47;;;;;;;24.40;18.43;;;0.70;99.90;;;;;;5014966;28;20438;-68
2023/12/02 09:28:15;;;;;;;23.60;18.03;;;0.80;99.90;;;;;;5014703;28;20426;-68
2023/12/02 09:30:55;;;;;;;25.97;18.87;;;0.70;99.90;;;;;;5014265;28;20926;-70
2023/12/02 09:33:20;;;;;;;23.27;18.17;;;0.80;99.90;;;;;;5014773;28;20466;-70
2023/12/02 09:35:52;;;;;;;18.70;15.50;;;0.80;99.90;;;;;;5014146;28;20441;-69
2023/12/02 09:38:18;;;;;;;20.87;17.13;;;0.70;99.90;;;;;;5014608;28;20528;-69
2023/12/02 09:41:06;;;;;;;22.57;16.03;;;0.80;99.90;;;;;;5014193;28;20435;-71
2023/12/02 09:43:58;;;;;;;23.30;17.27;;;0.90;99.90;;;;;;5014603;28;20639;-69
2023/12/02 09:46:52;;;;;;;19.23;16.03;;;0.70;99.90;;;;;;5014420;28;20908;-71
2023/12/02 09:49:52;;;;;;;19.87;16.00;;;0.40;99.90;;;;;;5014284;28;20494;-70
2023/12/02 09:52:35;;;;;;;20.10;15.50;;;0.40;99.90;;;;;;5012941;28;20417;-69
2023/12/02 09:55:16;;;;;;;21.73;17.30;;;0.40;99.90;;;;;;5014321;28;20446;-71
2023/12/02 09:58:05;;;;;;;21.30;16.57;;;0.50;99.90;;;;;;5013832;28;20379;-70
2023/12/02 10:00:48;;;;;;;18.77;15.20;;;0.50;99.90;;;;;;5014149;28;20483;-69
2023/12/02 10:03:24;;;;;;;21.40;15.67;;;0.60;99.90;;;;;;5013992;28;20421;-70
2023/12/02 10:06:03;;;;;;;20.13;15.40;;;0.60;99.90;;;;;;5014037;28;20877;-69
2023/12/02 10:08:59;;;;;;;21.90;16.70;;;0.40;99.90;;;;;;5014095;28;20384;-71
2023/12/02 10:11:40;;;;;;;21.87;16.80;;;0.50;99.90;;;;;;4996313;28;20449;-70
2023/12/02 10:14:12;;;;;;;21.33;17.17;;;0.50;99.90;;;;;;5013972;28;20956;-70
2023/12/02 10:16:41;;;;;;;26.27;17.97;;;0.50;99.90;;;;;;5013496;28;20813;-72
2023/12/02 10:19:12;;;;;;;24.03;17.80;;;0.50;99.90;;;;;;5013677;28;20405;-73
2023/12/02 10:21:43;;;;;;;20.77;16.27;;;0.50;99.90;;;;;;5013660;28;20446;-72
2023/12/02 10:24:11;;;;;;;20.70;16.60;;;0.40;99.90;;;;;;5013941;28;20414;-72
2023/12/02 10:26:58;;;;;;;21.87;17.30;;;0.50;99.90;;;;;;5013444;28;20403;-72
2023/12/02 10:29:24;;;;;;;20.97;17.63;;;0.60;99.90;;;;;;5013122;28;20457;-72
2023/12/02 10:32:01;;;;;;;25.23;17.83;;;0.60;99.90;;;;;;5013798;28;20498;-72
2023/12/02 10:34:46;;;;;;;19.27;14.93;;;0.50;99.90;;;;;;5012992;28;20197;-72
2023/12/02 10:37:13;;;;;;;18.73;15.70;;;0.70;99.90;;;;;;5013364;28;20888;-73
2023/12/02 10:39:47;;;;;;;21.73;16.80;;;0.90;99.90;;;;;;5012520;28;20964;-70
2023/12/02 10:42:29;;;;;;;20.27;16.27;;;0.70;99.90;;;;;;5013876;28;20387;-69
2023/12/02 10:45:07;;;;;;;18.83;15.57;;;0.70;99.90;;;;;;5013311;28;20403;-70
2023/12/02 10:47:33;;;;;;;18.43;15.43;;;0.70;99.90;;;;;;5013418;28;20498;-70
2023/12/02 10:50:00;;;;;;;20.23;15.53;;;0.60;99.90;;;;;;5012914;28;20431;-70
2023/12/02 10:52:28;;;;;;;21.87;18.00;;;0.50;99.90;;;;;;5012732;28;20461;-71
2023/12/02 10:54:58;;;;;;;20.37;15.37;;;0.60;99.90;;;;;;5013421;28;20455;-71
2023/12/02 10:57:26;;;;;;;20.90;16.10;;;0.80;99.90;;;;;;5013231;28;20399;-71
2023/12/02 11:00:11;;;;;;;24.37;17.67;;;0.80;99.90;;;;;;5013204;28;20423;-72
2023/12/02 11:02:46;;;;;;;17.80;14.07;;;0.80;99.90;;;;;;5013474;28;20384;-71
2023/12/02 11:05:23;;;;;;;21.57;15.90;;;0.70;99.90;;;;;;5013382;28;20444;-69
2023/12/02 11:07:53;;;;;;;21.30;16.33;;;0.70;99.90;;;;;;5012990;28;20394;-70
2023/12/02 11:10:32;;;;;;;19.47;16.37;;;0.70;99.90;;;;;;5014274;28;20430;-70
2023/12/02 11:13:02;;;;;;;18.17;15.43;;;0.60;99.90;;;;;;5015796;28;20505;-69
2023/12/02 11:15:30;;;;;;;18.07;15.67;;;0.50;99.90;;;;;;5016605;28;20450;-71
2023/12/02 11:18:00;;;;;;;19.63;15.37;;;0.50;99.90;;;;;;5017316;28;20490;-70
2023/12/02 11:20:46;;;;;;;18.70;15.07;;;0.50;99.90;;;;;;5017183;28;20426;-71
2023/12/02 11:23:34;;;;;;;18.10;15.03;;;0.50;99.90;;;;;;5017109;28;20494;-71
2023/12/02 11:25:59;;;;;;;19.33;14.83;;;0.50;99.90;;;;;;5017030;28;20415;-71
2023/12/02 11:28:28;;;;;;;17.27;13.60;;;0.60;99.90;;;;;;5016867;28;20457;-73
2023/12/02 11:30:53;;;;;;;18.03;13.93;;;0.60;99.90;;;;;;5016499;28;20203;-70
2023/12/02 11:33:28;;;;;;;15.77;12.80;;;0.70;99.90;;;;;;5015220;28;20410;-72
2023/12/02 11:36:20;;;;;;;15.10;12.17;;;0.60;99.90;;;;;;5016454;28;20200;-67
2023/12/02 11:39:21;;;;;;;15.77;13.00;;;0.60;99.90;;;;;;4993543;28;20407;-68
2023/12/02 11:41:59;;;;;;;16.23;13.97;;;0.70;99.90;;;;;;5016745;28;20409;-68
2023/12/02 11:44:53;;;;;;;17.20;13.77;;;0.90;99.90;;;;;;5016290;28;20387;-68
2023/12/02 11:47:44;;;;;;;19.03;14.40;;;0.90;99.90;;;;;;5016509;28;20390;-69
2023/12/02 11:50:24;;;;;;;16.13;13.30;;;0.90;99.90;;;;;;5016609;28;20933;-67
2023/12/02 11:53:05;;;;;;;18.10;14.70;;;0.80;99.90;;;;;;5016464;28;20421;-68
2023/12/02 11:55:43;;;;;;;14.10;11.43;;;0.60;99.90;;;;;;5016840;28;20399;-68
2023/12/02 11:58:23;;;;;;;15.83;12.00;;;0.60;99.90;;;;;;5016607;28;20378;-68
2023/12/02 12:01:16;;;;;;;13.73;12.20;;;0.60;99.90;;;;;;5016286;28;20512;-69
2023/12/02 12:03:55;;;;;;;15.27;13.67;;;0.50;99.90;;;;;;5016279;28;20379;-68
2023/12/02 12:06:42;;;;;;;19.20;13.67;;;0.40;99.90;;;;;;5016049;28;20425;-69
2023/12/02 12:09:37;;;;;;;13.50;12.10;;;0.60;99.90;;;;;;5016188;28;20379;-69
2023/12/02 12:12:06;;;;;;;16.97;13.07;;;0.60;99.90;;;;;;5015574;28;20402;-69
2023/12/02 12:14:36;;;;;;;15.70;12.40;;;0.60;99.90;;;;;;5016205;28;20442;-69
2023/12/02 12:17:01;;;;;;;14.33;12.73;;;0.60;99.90;;;;;;5015914;28;20925;-69
2023/12/02 12:19:28;;;;;;;15.20;12.03;;;0.80;99.90;;;;;;5015854;28;20425;-69
2023/12/02 12:21:53;;;;;;;15.37;12.27;;;0.70;99.90;;;;;;5015489;28;20168;-70
2023/12/02 12:24:19;;;;;;;15.40;11.87;;;0.60;99.90;;;;;;5015966;28;20900;-69
2023/12/02 12:26:44;;;;;;;14.10;11.70;;;0.60;99.90;;;;;;5015468;28;20168;-69
2023/12/02 12:29:10;;;;;;;16.17;12.97;;;0.70;99.90;;;;;;5015684;28;20176;-68
2023/12/02 12:31:36;;;;;;;12.23;10.63;;;0.70;99.90;;;;;;5015562;28;20195;-69
2023/12/02 12:34:03;;;;;;;14.10;12.23;;;0.60;99.90;;;;;;5015250;28;20972;-68
2023/12/02 12:36:30;;;;;;;14.63;11.20;;;0.60;99.90;;;;;;5015734;28;20198;-68
2023/12/02 12:38:57;;;;;;;14.77;12.37;;;0.50;99.90;;;;;;5015653;28;20414;-69
2023/12/02 12:41:27;;;;;;;14.30;11.20;;;0.60;99.90;;;;;;5015549;28;20432;-69